sensor_id;sensor_type;location;lat;lon;timestamp;temperature;humidity
19224;DHT22;9746;47.180;9.776;2023-03-01T12:36:57;10.40;99.90
19224;DHT22;9746;47.180;9.776;2023-03-01T12:39:43;10.20;99.90
19224;DHT22;9746;47.180;9.776;2023-03-01T12:42:19;9.90;99.90
19224;DHT22;9746;47.180;9.776;2023-03-01T12:45:12;9.50;99.90
19224;DHT22;9746;47.180;9.776;2023-03-01T12:47:58;8.90;99.90
19224;DHT22;9746;47.180;9.776;2023-03-01T12:50:41;8.20;99.90
19224;DHT22;9746;47.180;9.776;2023-03-01T12:53:24;8.00;99.90
19224;DHT22;9746;47.180;9.776;2023-03-01T12:56:01;8.00;99.90
19224;DHT22;9746;47.180;9.776;2023-03-01T12:58:49;8.30;99.90
19224;DHT22;9746;47.180;9.776;2023-03-01T13:01:42;8.30;99.90
19224;DHT22;9746;47.180;9.776;2023-03-01T13:04:21;8.30;99.90
19224;DHT22;9746;47.180;9.776;2023-03-01T13:07:02;8.40;99.90
19224;DHT22;9746;47.180;9.776;2023-03-01T13:09:38;8.70;99.90
19224;DHT22;9746;47.180;9.776;2023-03-01T13:12:47;9.50;99.90
19224;DHT22;9746;47.180;9.776;2023-03-01T13:15:38;10.60;99.90
19224;DHT22;9746;47.180;9.776;2023-03-01T13:18:34;11.20;99.90
19224;DHT22;9746;47.180;9.776;2023-03-01T13:21:13;11.40;99.90
19224;DHT22;9746;47.180;9.776;2023-03-01T13:23:58;11.90;99.90
19224;DHT22;9746;47.180;9.776;2023-03-01T13:29:59;13.90;99.90
19224;DHT22;9746;47.180;9.776;2023-03-01T13:32:36;15.00;99.90
19224;DHT22;9746;47.180;9.776;2023-03-01T13:38:54;14.60;99.90
19224;DHT22;9746;47.180;9.776;2023-03-01T13:41:58;13.50;99.90
19224;DHT22;9746;47.180;9.776;2023-03-01T13:44:34;12.50;99.90
19224;DHT22;9746;47.180;9.776;2023-03-01T13:47:15;12.20;99.90
19224;DHT22;9746;47.180;9.776;2023-03-01T13:49:55;12.20;99.90
19224;DHT22;9746;47.180;9.776;2023-03-01T13:52:36;12.40;99.90
19224;DHT22;9746;47.180;9.776;2023-03-01T13:55:16;12.80;99.90
19224;DHT22;9746;47.180;9.776;2023-03-01T13:57:47;13.20;99.90
19224;DHT22;9746;47.180;9.776;2023-03-01T14:00:36;13.60;99.90
19224;DHT22;9746;47.180;9.776;2023-03-01T14:03:09;14.10;99.90
19224;DHT22;9746;47.180;9.776;2023-03-01T14:05:38;14.50;99.90
19224;DHT22;9746;47.180;9.776;2023-03-01T14:08:19;14.50;99.90
19224;DHT22;9746;47.180;9.776;2023-03-01T14:10:58;14.60;99.90
19224;DHT22;9746;47.180;9.776;2023-03-01T14:13:43;14.50;99.90
19224;DHT22;9746;47.180;9.776;2023-03-01T14:16:29;14.10;99.90
19224;DHT22;9746;47.180;9.776;2023-03-01T14:19:10;13.60;99.90
19224;DHT22;9746;47.180;9.776;2023-03-01T14:24:48;12.80;99.90
19224;DHT22;9746;47.180;9.776;2023-03-01T14:27:17;11.80;99.90
19224;DHT22;9746;47.180;9.776;2023-03-01T14:29:56;11.40;99.90
19224;DHT22;9746;47.180;9.776;2023-03-01T14:32:26;10.90;99.90
19224;DHT22;9746;47.180;9.776;2023-03-01T14:34:55;10.80;99.90
19224;DHT22;9746;47.180;9.776;2023-03-01T14:37:26;10.50;99.90
19224;DHT22;9746;47.180;9.776;2023-03-01T14:39:55;10.10;99.90
19224;DHT22;9746;47.180;9.776;2023-03-01T14:42:25;9.90;99.90
19224;DHT22;9746;47.180;9.776;2023-03-01T14:44:56;9.60;99.90
19224;DHT22;9746;47.180;9.776;2023-03-01T14:47:28;9.40;99.90
19224;DHT22;9746;47.180;9.776;2023-03-01T14:49:59;9.20;99.90
19224;DHT22;9746;47.180;9.776;2023-03-01T14:52:33;9.20;99.90
19224;DHT22;9746;47.180;9.776;2023-03-01T14:55:04;8.90;99.90
19224;DHT22;9746;47.180;9.776;2023-03-01T14:57:33;8.60;99.90
19224;DHT22;9746;47.180;9.776;2023-03-01T15:00:07;8.40;99.90
19224;DHT22;9746;47.180;9.776;2023-03-01T15:02:35;8.00;99.90
19224;DHT22;9746;47.180;9.776;2023-03-01T15:05:23;7.70;99.90
19224;DHT22;9746;47.180;9.776;2023-03-01T15:08:04;7.70;99.90
19224;DHT22;9746;47.180;9.776;2023-03-01T15:10:33;7.70;99.90
19224;DHT22;9746;47.180;9.776;2023-03-01T15:13:11;7.70;99.90
19224;DHT22;9746;47.180;9.776;2023-03-01T15:16:04;7.50;99.90
19224;DHT22;9746;47.180;9.776;2023-03-01T15:18:34;7.40;99.90
19224;DHT22;9746;47.180;9.776;2023-03-01T15:21:17;7.20;99.90
19224;DHT22;9746;47.180;9.776;2023-03-01T15:23:49;7.20;99.90
19224;DHT22;9746;47.180;9.776;2023-03-01T15:26:30;7.00;99.90
19224;DHT22;9746;47.180;9.776;2023-03-01T15:29:01;7.00;99.90
19224;DHT22;9746;47.180;9.776;2023-03-01T15:31:37;6.90;99.90
19224;DHT22;9746;47.180;9.776;2023-03-01T15:34:21;6.80;99.90
19224;DHT22;9746;47.180;9.776;2023-03-01T15:36:56;6.70;99.90
19224;DHT22;9746;47.180;9.776;2023-03-01T15:39:33;6.70;99.90
19224;DHT22;9746;47.180;9.776;2023-03-01T15:42:04;6.60;99.90
19224;DHT22;9746;47.180;9.776;2023-03-01T15:44:34;6.60;99.90
19224;DHT22;9746;47.180;9.776;2023-03-01T15:47:25;6.60;99.90
19224;DHT22;9746;47.180;9.776;2023-03-01T15:49:53;6.50;99.90
19224;DHT22;9746;47.180;9.776;2023-03-01T15:52:24;6.50;99.90
19224;DHT22;9746;47.180;9.776;2023-03-01T15:54:57;6.40;99.90
19224;DHT22;9746;47.180;9.776;2023-03-01T15:57:28;6.40;99.90
19224;DHT22;9746;47.180;9.776;2023-03-01T15:59:56;6.20;99.90
19224;DHT22;9746;47.180;9.776;2023-03-01T16:02:41;6.20;99.90
19224;DHT22;9746;47.180;9.776;2023-03-01T16:05:18;6.10;99.90
19224;DHT22;9746;47.180;9.776;2023-03-01T16:07:49;6.10;99.90
19224;DHT22;9746;47.180;9.776;2023-03-01T16:10:17;6.10;99.90
19224;DHT22;9746;47.180;9.776;2023-03-01T16:12:53;6.00;99.90
19224;DHT22;9746;47.180;9.776;2023-03-01T16:15:24;6.00;99.90
19224;DHT22;9746;47.180;9.776;2023-03-01T16:17:58;5.80;99.90
19224;DHT22;9746;47.180;9.776;2023-03-01T16:20:30;5.70;99.90
19224;DHT22;9746;47.180;9.776;2023-03-01T16:22:59;5.60;99.90
19224;DHT22;9746;47.180;9.776;2023-03-01T16:25:28;5.60;99.90
19224;DHT22;9746;47.180;9.776;2023-03-01T16:28:00;5.40;99.90
19224;DHT22;9746;47.180;9.776;2023-03-01T16:30:31;5.30;99.90
19224;DHT22;9746;47.180;9.776;2023-03-01T16:33:01;5.20;99.90
19224;DHT22;9746;47.180;9.776;2023-03-01T16:35:32;5.20;99.90
19224;DHT22;9746;47.180;9.776;2023-03-01T16:38:00;5.10;99.90
19224;DHT22;9746;47.180;9.776;2023-03-01T16:40:28;5.00;99.90
19224;DHT22;9746;47.180;9.776;2023-03-01T16:43:03;5.00;99.90
19224;DHT22;9746;47.180;9.776;2023-03-01T16:45:35;4.90;99.90
19224;DHT22;9746;47.180;9.776;2023-03-01T16:48:08;4.80;99.90
19224;DHT22;9746;47.180;9.776;2023-03-01T16:50:35;4.80;99.90
19224;DHT22;9746;47.180;9.776;2023-03-01T16:53:04;4.70;99.90
19224;DHT22;9746;47.180;9.776;2023-03-01T16:55:32;4.60;99.90
19224;DHT22;9746;47.180;9.776;2023-03-01T16:58:03;4.60;99.90
19224;DHT22;9746;47.180;9.776;2023-03-01T17:00:31;4.60;99.90
19224;DHT22;9746;47.180;9.776;2023-03-01T17:03:08;4.50;99.90
19224;DHT22;9746;47.180;9.776;2023-03-01T17:05:35;4.40;99.90
19224;DHT22;9746;47.180;9.776;2023-03-01T17:08:16;4.40;99.90
19224;DHT22;9746;47.180;9.776;2023-03-01T17:10:43;4.30;99.90
19224;DHT22;9746;47.180;9.776;2023-03-01T17:13:34;4.20;99.90
19224;DHT22;9746;47.180;9.776;2023-03-01T17:16:04;4.10;99.90
19224;DHT22;9746;47.180;9.776;2023-03-01T17:18:33;4.10;99.90
19224;DHT22;9746;47.180;9.776;2023-03-01T17:21:01;4.00;99.90
19224;DHT22;9746;47.180;9.776;2023-03-01T17:23:31;4.00;99.90
19224;DHT22;9746;47.180;9.776;2023-03-01T17:26:00;4.00;99.90
19224;DHT22;9746;47.180;9.776;2023-03-01T17:28:29;3.90;99.90
19224;DHT22;9746;47.180;9.776;2023-03-01T17:30:58;3.90;99.90
19224;DHT22;9746;47.180;9.776;2023-03-01T17:33:27;3.80;99.90
19224;DHT22;9746;47.180;9.776;2023-03-01T17:35:57;3.70;99.90
19224;DHT22;9746;47.180;9.776;2023-03-01T17:38:31;3.60;99.90
19224;DHT22;9746;47.180;9.776;2023-03-01T17:41:11;3.50;99.90
19224;DHT22;9746;47.180;9.776;2023-03-01T17:43:40;3.40;99.90
19224;DHT22;9746;47.180;9.776;2023-03-01T17:46:14;3.50;99.90
19224;DHT22;9746;47.180;9.776;2023-03-01T17:48:43;3.50;99.90
19224;DHT22;9746;47.180;9.776;2023-03-01T17:51:12;3.50;99.90
19224;DHT22;9746;47.180;9.776;2023-03-01T17:53:40;3.50;99.90
19224;DHT22;9746;47.180;9.776;2023-03-01T17:56:10;3.50;99.90
19224;DHT22;9746;47.180;9.776;2023-03-01T17:58:38;3.50;99.90
19224;DHT22;9746;47.180;9.776;2023-03-01T18:01:11;3.60;99.90
19224;DHT22;9746;47.180;9.776;2023-03-01T18:03:41;3.60;99.90
19224;DHT22;9746;47.180;9.776;2023-03-01T18:06:13;3.70;99.90
19224;DHT22;9746;47.180;9.776;2023-03-01T18:08:41;3.70;99.90
19224;DHT22;9746;47.180;9.776;2023-03-01T18:11:10;3.80;99.90
19224;DHT22;9746;47.180;9.776;2023-03-01T18:13:38;3.80;99.90
19224;DHT22;9746;47.180;9.776;2023-03-01T18:16:08;3.80;99.90
19224;DHT22;9746;47.180;9.776;2023-03-01T18:18:36;3.80;99.90
19224;DHT22;9746;47.180;9.776;2023-03-01T18:21:17;3.90;99.90
19224;DHT22;9746;47.180;9.776;2023-03-01T18:23:46;3.90;99.90
19224;DHT22;9746;47.180;9.776;2023-03-01T18:26:14;3.90;99.90
19224;DHT22;9746;47.180;9.776;2023-03-01T18:28:53;3.80;99.90
19224;DHT22;9746;47.180;9.776;2023-03-01T18:31:24;3.80;99.90
19224;DHT22;9746;47.180;9.776;2023-03-01T18:33:53;3.80;99.90
19224;DHT22;9746;47.180;9.776;2023-03-01T18:36:25;3.80;99.90
19224;DHT22;9746;47.180;9.776;2023-03-01T18:38:54;3.80;99.90
19224;DHT22;9746;47.180;9.776;2023-03-01T18:41:23;3.80;99.90
19224;DHT22;9746;47.180;9.776;2023-03-01T18:44:01;3.80;99.90
19224;DHT22;9746;47.180;9.776;2023-03-01T18:46:29;3.80;99.90
19224;DHT22;9746;47.180;9.776;2023-03-01T18:48:56;3.80;99.90
19224;DHT22;9746;47.180;9.776;2023-03-01T18:51:27;3.90;99.90
19224;DHT22;9746;47.180;9.776;2023-03-01T18:53:55;3.90;99.90
19224;DHT22;9746;47.180;9.776;2023-03-01T18:56:29;3.80;99.90
19224;DHT22;9746;47.180;9.776;2023-03-01T18:59:01;3.80;99.90
19224;DHT22;9746;47.180;9.776;2023-03-01T19:01:30;3.80;99.90
19224;DHT22;9746;47.180;9.776;2023-03-01T19:04:00;3.80;99.90
19224;DHT22;9746;47.180;9.776;2023-03-01T19:06:32;3.80;99.90
19224;DHT22;9746;47.180;9.776;2023-03-01T19:09:00;3.80;99.90
19224;DHT22;9746;47.180;9.776;2023-03-01T19:11:28;3.70;99.90
19224;DHT22;9746;47.180;9.776;2023-03-01T19:13:59;3.70;99.90
19224;DHT22;9746;47.180;9.776;2023-03-01T19:16:29;3.70;99.90
19224;DHT22;9746;47.180;9.776;2023-03-01T19:19:06;3.80;99.90
19224;DHT22;9746;47.180;9.776;2023-03-01T19:21:39;3.80;99.90
19224;DHT22;9746;47.180;9.776;2023-03-01T19:24:07;3.70;99.90
19224;DHT22;9746;47.180;9.776;2023-03-01T19:26:38;3.70;99.90
19224;DHT22;9746;47.180;9.776;2023-03-01T19:29:30;3.70;99.90
19224;DHT22;9746;47.180;9.776;2023-03-01T19:32:01;3.70;99.90
19224;DHT22;9746;47.180;9.776;2023-03-01T19:34:29;3.70;99.90
19224;DHT22;9746;47.180;9.776;2023-03-01T19:37:04;3.70;99.90
19224;DHT22;9746;47.180;9.776;2023-03-01T19:39:31;3.70;99.90
19224;DHT22;9746;47.180;9.776;2023-03-01T19:41:58;3.60;99.90
19224;DHT22;9746;47.180;9.776;2023-03-01T19:44:26;3.60;99.90
19224;DHT22;9746;47.180;9.776;2023-03-01T19:46:54;3.60;99.90
19224;DHT22;9746;47.180;9.776;2023-03-01T19:49:22;3.50;99.90
19224;DHT22;9746;47.180;9.776;2023-03-01T19:51:50;3.50;99.90
19224;DHT22;9746;47.180;9.776;2023-03-01T19:54:37;3.50;99.90
19224;DHT22;9746;47.180;9.776;2023-03-01T19:57:04;3.50;99.90
19224;DHT22;9746;47.180;9.776;2023-03-01T19:59:32;3.50;99.90
19224;DHT22;9746;47.180;9.776;2023-03-01T20:01:59;3.60;99.90
19224;DHT22;9746;47.180;9.776;2023-03-01T20:04:28;3.60;99.90
